createdAt,value
2022-09-28T00:01:20.646Z,99.90
2022-09-28T00:03:49.873Z,99.90
2022-09-28T00:06:24.376Z,99.90
2022-09-28T00:08:52.314Z,99.90
2022-09-28T00:11:21.220Z,99.90
2022-09-28T00:13:51.754Z,99.90
2022-09-28T00:16:22.080Z,99.90
2022-09-28T00:18:51.155Z,99.90
2022-09-28T00:21:24.305Z,99.90
2022-09-28T00:24:13.134Z,99.90
2022-09-28T00:26:43.949Z,99.90
2022-09-28T00:29:23.423Z,99.90
2022-09-28T00:31:59.989Z,99.90
2022-09-28T00:34:31.976Z,99.90
2022-09-28T00:37:01.017Z,99.90
2022-09-28T00:39:31.568Z,99.90
2022-09-28T00:41:59.744Z,99.90
2022-09-28T00:44:30.222Z,99.90
2022-09-28T00:47:27.017Z,99.90
2022-09-28T00:49:57.395Z,99.90
2022-09-28T00:52:41.046Z,99.90
2022-09-28T00:55:13.321Z,99.90
2022-09-28T00:57:46.111Z,99.90
2022-09-28T01:00:13.980Z,99.90
2022-09-28T01:02:42.309Z,99.90
2022-09-28T01:05:11.436Z,99.90
2022-09-28T01:07:39.637Z,99.90
2022-09-28T01:10:08.058Z,99.90
2022-09-28T01:12:35.614Z,99.90
2022-09-28T01:15:05.575Z,99.90
2022-09-28T01:17:36.765Z,99.90
2022-09-28T01:20:19.754Z,99.90
2022-09-28T01:23:19.342Z,99.90
2022-09-28T01:26:16.072Z,99.90
2022-09-28T01:28:46.949Z,99.90
2022-09-28T01:31:15.960Z,99.90
2022-09-28T01:33:55.252Z,99.90
2022-09-28T01:36:28.128Z,99.90
2022-09-28T01:39:24.526Z,99.90
2022-09-28T01:41:56.742Z,99.90
2022-09-28T01:44:28.949Z,99.90
2022-09-28T01:47:03.585Z,99.90
2022-09-28T01:49:42.323Z,99.90
2022-09-28T01:52:18.446Z,99.90
2022-09-28T01:55:02.688Z,99.90
2022-09-28T01:57:44.145Z,99.90
2022-09-28T02:00:15.092Z,99.90
2022-09-28T02:02:54.605Z,99.90
2022-09-28T02:05:37.646Z,99.90
2022-09-28T02:08:20.060Z,99.90
2022-09-28T02:10:57.550Z,99.90
2022-09-28T02:13:32.862Z,99.90
2022-09-28T02:16:15.137Z,99.90
2022-09-28T02:18:44.946Z,99.90
2022-09-28T02:21:32.414Z,99.90
2022-09-28T02:24:06.932Z,99.90
2022-09-28T02:26:44.686Z,99.90
2022-09-28T02:29:13.042Z,99.90
2022-09-28T02:31:40.645Z,99.90
2022-09-28T02:34:09.085Z,99.90
2022-09-28T02:36:36.969Z,99.90
2022-09-28T02:39:04.729Z,99.90
2022-09-28T02:41:53.814Z,99.90
2022-09-28T02:44:46.277Z,99.90
2022-09-28T02:47:51.978Z,99.90
2022-09-28T02:50:42.056Z,99.90
2022-09-28T02:53:09.521Z,99.90
2022-09-28T02:55:53.101Z,99.90
2022-09-28T02:58:54.411Z,99.90
2022-09-28T03:01:38.509Z,99.90
2022-09-28T03:04:18.511Z,99.90
2022-09-28T03:06:54.713Z,99.90
2022-09-28T03:09:28.489Z,99.90
2022-09-28T03:12:00.996Z,99.90
2022-09-28T03:14:28.533Z,99.90
2022-09-28T03:16:58.077Z,99.90
2022-09-28T03:19:31.580Z,99.90
2022-09-28T03:22:01.758Z,99.90
2022-09-28T03:24:29.432Z,99.90
2022-09-28T03:26:58.422Z,99.90
2022-09-28T03:29:26.631Z,99.90
2022-09-28T03:32:00.094Z,99.90
2022-09-28T03:34:27.674Z,99.90
2022-09-28T03:36:55.862Z,99.90
2022-09-28T03:39:23.419Z,99.90
2022-09-28T03:41:50.957Z,99.90
2022-09-28T03:44:20.917Z,99.90
2022-09-28T03:46:49.116Z,99.90
2022-09-28T03:49:16.845Z,99.90
2022-09-28T03:51:44.481Z,99.90
2022-09-28T03:54:13.001Z,99.90
2022-09-28T03:56:41.244Z,99.90
2022-09-28T03:59:08.836Z,99.90
2022-09-28T04:01:37.711Z,99.90
2022-09-28T04:04:05.631Z,99.90
2022-09-28T04:06:33.281Z,99.90
2022-09-28T04:09:00.894Z,99.90
2022-09-28T04:11:42.844Z,99.90
2022-09-28T04:14:16.978Z,99.90
2022-09-28T04:16:44.552Z,99.90
2022-09-28T04:19:15.879Z,99.90
2022-09-28T04:22:02.391Z,99.90
2022-09-28T04:24:30.049Z,99.90
2022-09-28T04:27:17.525Z,99.90
2022-09-28T04:29:45.208Z,99.90
2022-09-28T04:32:14.655Z,99.90
2022-09-28T04:34:44.331Z,99.90
2022-09-28T04:37:12.648Z,99.90
2022-09-28T04:39:43.924Z,99.90
2022-09-28T04:42:14.365Z,99.90
2022-09-28T04:44:41.858Z,99.90
2022-09-28T04:47:10.434Z,99.90
2022-09-28T04:49:56.554Z,99.90
2022-09-28T04:52:35.613Z,99.90
2022-09-28T04:55:03.493Z,99.90
2022-09-28T04:57:31.198Z,99.90
2022-09-28T04:59:59.529Z,99.90
2022-09-28T05:02:27.835Z,99.90
2022-09-28T05:05:15.753Z,99.90
2022-09-28T05:08:05.482Z,99.90
2022-09-28T05:10:33.226Z,99.90
2022-09-28T05:13:02.011Z,99.90
2022-09-28T05:15:31.032Z,99.90
2022-09-28T05:17:58.795Z,99.90
2022-09-28T05:20:41.775Z,99.90
2022-09-28T05:23:13.517Z,99.90
2022-09-28T05:25:45.310Z,99.90
2022-09-28T05:28:29.019Z,99.90
2022-09-28T05:31:15.206Z,99.90
2022-09-28T05:34:09.069Z,99.90
2022-09-28T05:36:38.743Z,99.90
2022-09-28T05:39:06.898Z,99.90
2022-09-28T05:41:35.729Z,99.90
2022-09-28T05:44:03.261Z,99.90
2022-09-28T05:46:31.332Z,99.90
2022-09-28T05:49:01.288Z,99.90
2022-09-28T05:51:29.004Z,99.90
2022-09-28T05:54:00.651Z,99.90
2022-09-28T05:56:31.738Z,99.90
2022-09-28T05:58:59.334Z,99.90
2022-09-28T06:01:29.925Z,99.90
2022-09-28T06:03:59.723Z,99.90
2022-09-28T06:06:27.293Z,99.90
2022-09-28T06:08:54.909Z,99.90
2022-09-28T06:11:42.937Z,99.90
2022-09-28T06:14:30.049Z,99.90
2022-09-28T06:16:57.650Z,99.90
2022-09-28T06:19:25.212Z,99.90
2022-09-28T06:22:17.413Z,99.90
2022-09-28T06:24:52.380Z,99.90
2022-09-28T06:27:19.934Z,99.90
2022-09-28T06:29:47.414Z,99.90
2022-09-28T06:32:14.981Z,99.90
2022-09-28T06:34:44.498Z,99.90
2022-09-28T06:37:12.349Z,99.90
2022-09-28T06:39:39.833Z,99.90
2022-09-28T06:42:07.764Z,99.90
2022-09-28T06:44:54.133Z,99.90
2022-09-28T06:47:41.953Z,99.90
2022-09-28T06:50:17.581Z,99.90
2022-09-28T06:53:09.615Z,99.90
2022-09-28T06:55:50.113Z,99.90
2022-09-28T06:58:20.093Z,99.90
2022-09-28T07:00:50.131Z,99.90
2022-09-28T07:03:20.112Z,99.90
2022-09-28T07:06:26.812Z,99.90
2022-09-28T07:09:26.418Z,99.90
2022-09-28T07:12:13.224Z,99.90
2022-09-28T07:14:56.263Z,99.90
2022-09-28T07:17:25.131Z,99.90
2022-09-28T07:19:55.831Z,99.90
2022-09-28T07:22:39.803Z,99.90
2022-09-28T07:25:09.711Z,99.90
2022-09-28T07:27:48.402Z,99.90
2022-09-28T07:30:40.122Z,99.90
2022-09-28T07:33:17.212Z,99.90
2022-09-28T07:35:55.551Z,99.90
2022-09-28T07:38:30.182Z,99.90
2022-09-28T07:41:14.015Z,99.90
2022-09-28T07:43:48.458Z,99.90
2022-09-28T07:46:16.903Z,99.90
2022-09-28T07:48:53.717Z,99.90
2022-09-28T07:51:44.245Z,99.90
2022-09-28T07:54:32.018Z,99.90
2022-09-28T07:57:15.246Z,99.90
2022-09-28T07:59:54.501Z,99.90
2022-09-28T08:02:41.004Z,99.90
2022-09-28T08:05:10.044Z,99.90
2022-09-28T08:07:38.370Z,99.90
2022-09-28T08:10:09.495Z,99.90
2022-09-28T08:12:59.219Z,99.90
2022-09-28T08:16:02.917Z,99.90
2022-09-28T08:18:39.846Z,99.90
2022-09-28T08:21:26.054Z,99.90
2022-09-28T08:23:53.748Z,99.90
2022-09-28T08:26:21.759Z,99.90
2022-09-28T08:28:50.297Z,99.90
2022-09-28T08:31:44.013Z,99.90
2022-09-28T08:34:23.654Z,99.90
2022-09-28T08:37:13.942Z,99.90
2022-09-28T08:39:59.742Z,99.90
2022-09-28T08:43:01.941Z,99.90
2022-09-28T08:45:48.511Z,99.90
2022-09-28T08:48:52.382Z,99.90
2022-09-28T08:52:03.484Z,99.90
2022-09-28T08:54:56.776Z,99.90
2022-09-28T08:57:41.962Z,99.90
2022-09-28T09:00:21.221Z,99.90
2022-09-28T09:02:49.514Z,99.90
2022-09-28T09:05:25.784Z,99.90
2022-09-28T09:08:29.974Z,99.90
2022-09-28T09:11:22.474Z,99.90
2022-09-28T09:14:04.946Z,99.90
2022-09-28T09:16:47.737Z,99.90
2022-09-28T09:20:00.050Z,99.90
2022-09-28T09:22:57.516Z,98.60
2022-09-28T09:25:38.650Z,98.00
2022-09-28T09:28:32.736Z,97.60
2022-09-28T09:31:30.045Z,95.50
2022-09-28T09:34:18.019Z,94.00
2022-09-28T09:37:10.750Z,93.10
2022-09-28T09:40:27.385Z,92.50
2022-09-28T09:43:39.918Z,92.90
2022-09-28T09:46:37.806Z,91.00
2022-09-28T09:49:55.623Z,90.80
2022-09-28T09:55:15.211Z,88.00
2022-09-28T09:58:04.493Z,85.70
2022-09-28T10:00:39.364Z,82.40
2022-09-28T10:03:26.701Z,81.30
2022-09-28T10:06:05.697Z,77.70
2022-09-28T10:08:39.768Z,76.80
2022-09-28T10:11:31.069Z,76.70
2022-09-28T10:13:59.689Z,75.30
2022-09-28T10:16:40.126Z,75.60
2022-09-28T10:19:14.680Z,77.00
2022-09-28T10:22:04.801Z,74.90
2022-09-28T10:24:38.624Z,73.50
2022-09-28T10:27:15.623Z,72.00
2022-09-28T10:29:50.814Z,69.30
2022-09-28T10:32:24.402Z,69.10
2022-09-28T10:35:14.979Z,67.20
2022-09-28T10:38:03.342Z,65.00
2022-09-28T10:40:59.249Z,63.60
2022-09-28T10:44:06.840Z,62.50
2022-09-28T10:46:45.229Z,62.40
2022-09-28T10:49:18.607Z,62.00
2022-09-28T10:51:56.157Z,61.40
2022-09-28T10:54:29.758Z,60.60
2022-09-28T10:57:00.273Z,60.90
2022-09-28T10:59:42.628Z,60.40
2022-09-28T11:02:37.496Z,59.20
2022-09-28T11:05:21.805Z,56.00
2022-09-28T11:07:52.390Z,55.90
2022-09-28T11:10:29.793Z,56.60
2022-09-28T11:13:03.218Z,56.00
2022-09-28T11:15:34.456Z,56.40
2022-09-28T11:18:29.522Z,56.20
2022-09-28T11:21:14.708Z,56.80
2022-09-28T11:24:07.477Z,56.70
2022-09-28T11:26:48.397Z,54.90
2022-09-28T11:29:41.732Z,54.00
2022-09-28T11:32:23.764Z,54.60
2022-09-28T11:35:22.683Z,55.80
2022-09-28T11:38:09.008Z,55.50
2022-09-28T11:41:36.993Z,54.80
2022-09-28T11:44:41.339Z,52.60
2022-09-28T11:47:34.330Z,52.50
2022-09-28T11:50:24.114Z,52.10
2022-09-28T11:52:57.633Z,49.80
2022-09-28T11:55:31.174Z,49.20
2022-09-28T11:58:37.758Z,48.90
2022-09-28T12:01:18.881Z,48.20
2022-09-28T12:04:24.087Z,47.60
2022-09-28T12:07:09.579Z,46.90
2022-09-28T12:09:52.394Z,45.50
2022-09-28T12:12:43.733Z,45.80
2022-09-28T12:15:26.762Z,44.80
2022-09-28T12:18:03.760Z,45.30
2022-09-28T12:20:35.648Z,45.90
2022-09-28T12:23:09.876Z,47.50
2022-09-28T12:25:46.247Z,49.60
2022-09-28T12:28:39.161Z,52.00
2022-09-28T12:31:41.540Z,53.80
2022-09-28T12:34:09.961Z,56.10
2022-09-28T12:37:05.542Z,57.20
2022-09-28T12:39:57.719Z,58.80
2022-09-28T12:42:44.360Z,59.00
2022-09-28T12:45:23.610Z,57.80
2022-09-28T12:48:22.809Z,54.50
2022-09-28T12:51:09.595Z,52.50
2022-09-28T12:54:19.496Z,53.10
2022-09-28T12:57:13.706Z,55.20
2022-09-28T13:00:05.066Z,56.00
2022-09-28T13:03:11.138Z,52.50
2022-09-28T13:05:56.842Z,49.70
2022-09-28T13:08:42.127Z,48.10
2022-09-28T13:11:26.385Z,47.60
2022-09-28T13:14:05.989Z,49.20
2022-09-28T13:16:47.269Z,50.90
2022-09-28T13:19:19.326Z,50.70
2022-09-28T13:21:49.938Z,49.80
2022-09-28T13:24:32.720Z,50.60
2022-09-28T13:27:10.438Z,51.90
2022-09-28T13:32:12.961Z,50.50
2022-09-28T13:34:40.578Z,48.30
2022-09-28T13:37:17.188Z,47.20
2022-09-28T13:39:44.858Z,44.90
2022-09-28T13:42:23.416Z,43.40
2022-09-28T13:44:51.000Z,40.50
2022-09-28T13:47:56.150Z,40.40
2022-09-28T13:50:23.610Z,40.50
2022-09-28T13:53:29.941Z,40.10
2022-09-28T13:56:16.248Z,40.30
2022-09-28T13:58:56.456Z,40.00
2022-09-28T14:01:36.298Z,39.00
2022-09-28T14:04:20.520Z,40.40
2022-09-28T14:06:57.546Z,41.60
2022-09-28T14:09:40.143Z,43.20
2022-09-28T14:12:36.698Z,44.70
2022-09-28T14:15:30.400Z,45.30
2022-09-28T14:17:57.894Z,43.70
2022-09-28T14:20:27.237Z,42.80
2022-09-28T14:23:34.634Z,41.20
2022-09-28T14:26:20.764Z,42.50
2022-09-28T14:29:22.756Z,43.90
2022-09-28T14:31:50.402Z,45.10
2022-09-28T14:34:29.830Z,45.00
2022-09-28T14:37:15.953Z,44.30
2022-09-28T14:40:04.102Z,43.80
2022-09-28T14:42:32.418Z,42.30
2022-09-28T14:45:06.199Z,42.50
2022-09-28T14:47:41.078Z,43.60
2022-09-28T14:50:27.724Z,45.40
2022-09-28T14:53:06.785Z,47.70
2022-09-28T14:55:50.224Z,48.60
2022-09-28T14:58:22.490Z,49.80
2022-09-28T15:00:54.610Z,50.40
2022-09-28T15:03:24.100Z,50.20
2022-09-28T15:05:52.456Z,49.40
2022-09-28T15:08:21.457Z,48.50
2022-09-28T15:10:50.980Z,47.10
2022-09-28T15:13:25.740Z,47.00
2022-09-28T15:16:10.024Z,46.80
2022-09-28T15:19:10.457Z,46.30
2022-09-28T15:21:41.141Z,45.80
2022-09-28T15:24:27.593Z,45.40
2022-09-28T15:26:56.659Z,44.80
2022-09-28T15:29:27.190Z,44.20
2022-09-28T15:31:54.899Z,43.90
2022-09-28T15:34:47.006Z,43.00
2022-09-28T15:37:17.250Z,41.80
2022-09-28T15:39:48.244Z,41.30
2022-09-28T15:42:16.765Z,41.10
2022-09-28T15:45:01.235Z,41.00
2022-09-28T15:47:31.862Z,43.50
2022-09-28T15:50:00.691Z,44.20
2022-09-28T15:52:44.930Z,46.50
2022-09-28T15:55:25.671Z,49.00
2022-09-28T15:58:15.764Z,50.40
2022-09-28T16:00:45.191Z,50.80
2022-09-28T16:03:15.900Z,50.60
2022-09-28T16:05:49.287Z,51.30
2022-09-28T16:08:36.316Z,52.00
2022-09-28T16:11:19.406Z,53.30
2022-09-28T16:14:02.078Z,53.10
2022-09-28T16:16:35.305Z,52.70
2022-09-28T16:19:03.818Z,51.50
2022-09-28T16:21:43.737Z,51.60
2022-09-28T16:24:41.677Z,52.50
2022-09-28T16:27:23.397Z,54.30
2022-09-28T16:30:21.680Z,55.50
2022-09-28T16:32:57.262Z,57.00
2022-09-28T16:35:42.891Z,57.30
2022-09-28T16:38:14.362Z,57.30
2022-09-28T16:40:50.050Z,57.30
2022-09-28T16:43:24.908Z,58.30
2022-09-28T16:46:09.230Z,58.70
2022-09-28T16:48:48.540Z,60.10
2022-09-28T16:51:22.046Z,60.70
2022-09-28T16:54:08.286Z,60.40
2022-09-28T16:56:36.605Z,60.20
2022-09-28T16:59:04.572Z,59.90
2022-09-28T17:01:32.975Z,59.60
2022-09-28T17:04:00.648Z,59.40
2022-09-28T17:06:28.294Z,59.60
2022-09-28T17:08:56.691Z,60.50
2022-09-28T17:11:25.210Z,61.90
2022-09-28T17:13:59.111Z,63.60
2022-09-28T17:19:21.721Z,67.10
2022-09-28T17:21:50.524Z,68.20
2022-09-28T17:24:19.306Z,69.40
2022-09-28T17:26:49.915Z,70.90
2022-09-28T17:29:18.578Z,73.30
2022-09-28T17:31:47.038Z,74.50
2022-09-28T17:34:19.519Z,77.00
2022-09-28T17:36:47.517Z,79.20
2022-09-28T17:39:17.675Z,80.90
2022-09-28T17:41:45.945Z,82.60
2022-09-28T17:44:16.621Z,84.50
2022-09-28T17:46:48.570Z,86.60
2022-09-28T17:49:17.045Z,87.90
2022-09-28T17:51:44.768Z,89.50
2022-09-28T17:54:13.649Z,90.20
2022-09-28T17:56:42.653Z,90.80
2022-09-28T17:59:13.795Z,91.40
2022-09-28T18:01:41.438Z,92.20
2022-09-28T18:04:23.092Z,92.70
2022-09-28T18:06:55.424Z,93.30
2022-09-28T18:09:25.316Z,93.90
2022-09-28T18:12:00.882Z,94.20
2022-09-28T18:14:28.860Z,94.70
2022-09-28T18:16:56.746Z,95.20
2022-09-28T18:19:27.460Z,95.60
2022-09-28T18:21:59.010Z,95.90
2022-09-28T18:24:26.666Z,96.20
2022-09-28T18:26:54.245Z,96.60
2022-09-28T18:29:22.234Z,96.90
2022-09-28T18:31:50.099Z,97.30
2022-09-28T18:34:17.861Z,97.50
2022-09-28T18:36:45.558Z,97.80
2022-09-28T18:39:13.237Z,98.00
2022-09-28T18:41:42.093Z,98.30
2022-09-28T18:44:10.325Z,98.50
2022-09-28T18:46:38.042Z,98.60
2022-09-28T18:49:05.911Z,98.80
2022-09-28T18:51:33.577Z,99.10
2022-09-28T18:54:07.054Z,99.30
2022-09-28T18:56:37.337Z,99.60
2022-09-28T18:59:11.266Z,99.90
2022-09-28T19:01:42.003Z,99.90
2022-09-28T19:04:11.032Z,99.90
2022-09-28T19:06:40.857Z,99.90
2022-09-28T19:09:09.540Z,99.90
2022-09-28T19:11:37.226Z,99.90
2022-09-28T19:14:04.898Z,99.90
2022-09-28T19:16:35.526Z,99.90
2022-09-28T19:19:03.504Z,99.90
2022-09-28T19:21:31.683Z,99.90
2022-09-28T19:24:04.088Z,99.90
2022-09-28T19:26:32.948Z,99.90
2022-09-28T19:29:01.134Z,99.90
2022-09-28T19:31:30.898Z,99.90
2022-09-28T19:33:58.774Z,99.90
2022-09-28T19:36:28.505Z,99.90
2022-09-28T19:38:57.949Z,99.90
2022-09-28T19:41:49.419Z,99.90
2022-09-28T19:44:25.697Z,99.90
2022-09-28T19:46:56.053Z,99.90
2022-09-28T19:49:25.289Z,99.90
2022-09-28T19:52:14.263Z,99.90
2022-09-28T19:54:54.329Z,99.90
2022-09-28T19:57:24.746Z,99.90
2022-09-28T19:59:54.967Z,99.90
2022-09-28T20:02:24.300Z,99.90
2022-09-28T20:04:51.872Z,99.90
2022-09-28T20:07:19.375Z,99.90
2022-09-28T20:09:46.884Z,99.90
2022-09-28T20:12:14.570Z,99.90
2022-09-28T20:14:42.057Z,99.90
2022-09-28T20:17:10.614Z,99.90
2022-09-28T20:19:38.413Z,99.90
2022-09-28T20:22:06.046Z,99.90
2022-09-28T20:24:33.900Z,99.90
2022-09-28T20:27:01.725Z,99.90
2022-09-28T20:29:33.795Z,99.90
2022-09-28T20:32:03.918Z,99.90
2022-09-28T20:34:33.756Z,99.90
2022-09-28T20:37:01.634Z,99.90
2022-09-28T20:39:29.630Z,99.90
2022-09-28T20:41:57.499Z,99.90
2022-09-28T20:44:25.074Z,99.90
2022-09-28T20:46:53.799Z,99.90
2022-09-28T20:49:22.181Z,99.90
2022-09-28T20:51:49.774Z,99.90
2022-09-28T20:54:17.498Z,99.90
2022-09-28T20:56:47.181Z,99.90
2022-09-28T20:59:14.865Z,99.90
2022-09-28T21:01:42.936Z,99.90
2022-09-28T21:04:10.910Z,99.90
2022-09-28T21:06:41.166Z,99.90
2022-09-28T21:09:10.501Z,99.90
2022-09-28T21:11:38.900Z,99.90
2022-09-28T21:14:07.058Z,99.90
2022-09-28T21:16:35.568Z,99.90
2022-09-28T21:19:03.650Z,99.90
2022-09-28T21:21:31.173Z,99.90
2022-09-28T21:23:59.450Z,99.90
2022-09-28T21:26:29.173Z,99.90
2022-09-28T21:28:59.265Z,99.90
2022-09-28T21:31:31.452Z,99.90
2022-09-28T21:33:59.465Z,99.90
2022-09-28T21:36:26.942Z,99.90
2022-09-28T21:38:55.570Z,99.90
2022-09-28T21:41:24.221Z,99.90
2022-09-28T21:43:52.624Z,99.90
2022-09-28T21:46:20.485Z,99.90
2022-09-28T21:48:53.500Z,99.90
2022-09-28T21:51:21.760Z,99.90
2022-09-28T21:53:49.407Z,99.90
2022-09-28T21:56:17.579Z,99.90
2022-09-28T21:58:45.084Z,99.90
2022-09-28T22:01:16.567Z,99.90
2022-09-28T22:03:45.237Z,99.90
2022-09-28T22:06:13.043Z,99.90
2022-09-28T22:08:40.602Z,99.90
2022-09-28T22:11:11.120Z,99.90
2022-09-28T22:13:56.468Z,99.90
2022-09-28T22:16:26.496Z,99.90
2022-09-28T22:18:54.081Z,99.90
2022-09-28T22:21:23.157Z,99.90
2022-09-28T22:23:51.033Z,99.90
2022-09-28T22:26:25.645Z,99.90
2022-09-28T22:28:55.942Z,99.90
2022-09-28T22:31:26.802Z,99.90
2022-09-28T22:33:54.880Z,99.90
2022-09-28T22:36:22.668Z,99.90
2022-09-28T22:38:50.215Z,99.90
2022-09-28T22:41:20.958Z,99.90
2022-09-28T22:43:49.881Z,99.90
2022-09-28T22:46:22.495Z,99.90
2022-09-28T22:48:52.671Z,99.90
2022-09-28T22:51:20.849Z,99.90
2022-09-28T22:53:48.568Z,99.90
2022-09-28T22:56:19.078Z,99.90
2022-09-28T22:58:47.408Z,99.90
2022-09-28T23:01:19.303Z,99.90
2022-09-28T23:03:47.856Z,99.90
2022-09-28T23:06:18.094Z,99.90
2022-09-28T23:08:47.360Z,99.90
2022-09-28T23:11:15.541Z,99.90
2022-09-28T23:13:43.523Z,99.90
2022-09-28T23:16:12.665Z,99.90
2022-09-28T23:18:41.135Z,99.90
2022-09-28T23:21:15.434Z,99.90
2022-09-28T23:23:43.914Z,99.90
2022-09-28T23:26:13.888Z,99.90
2022-09-28T23:28:42.003Z,99.90
2022-09-28T23:31:17.541Z,99.90
2022-09-28T23:33:45.501Z,99.90
2022-09-28T23:36:13.533Z,99.90
2022-09-28T23:38:41.535Z,99.90
2022-09-28T23:41:09.742Z,99.90
2022-09-28T23:43:37.287Z,99.90
2022-09-28T23:46:05.368Z,99.90
2022-09-28T23:48:33.578Z,99.90
2022-09-28T23:51:02.102Z,99.90
2022-09-28T23:53:32.209Z,99.90
2022-09-28T23:56:00.415Z,99.90
2022-09-28T23:58:28.274Z,99.90
